KOUN/OUN METAR and TAF weather

Enter ICAO airport designator
Station Type Date Time Source
KOUN METAR 2018/12/13 21:45 UTC NOAA

KOUN 132145Z 34026G32KT 7SM -RA OVC012 05/03 A2980 RMK LGT DSNT S


Station Type Date Time Source
KOUN Decoded METAR 2018/12/13 21:45 UTC NOAA

Norman / Max Westheimer, OK, United States (KOUN) 35-13N 097-27W 357M
Dec 13, 2018 - 04:45 PM EST / 2018.12.13 2145 UTC
Wind: from the NNW (340 degrees) at 30 MPH (26 KT) gusting to 37 MPH (32 KT):0
Visibility: 7 mile(s):0
Sky conditions: overcast
Weather: light rain
Temperature: 41 F (5 C)
Dew Point: 37 F (3 C)
Relative Humidity: 86%
Pressure (altimeter): 29.8 in. Hg (1009 hPa)
ob: KOUN 132145Z 34026G32KT 7SM -RA OVC012 05/03 A2980 RMK LGT DSNT S
cycle: 22

Station Type Date Time Source
KOUN TAF 2018/12/13 18:42 UTC NOAA

TAF KOUN 131741Z 1318/1418 36020G28KT 3SM -RA BR OVC008
FM132100 35026G35KT 4SM -RA BR OVC012
TEMPO 1400/1404 1SM RA BR OVC008
FM141300 35024G32KT P6SM OVC015


Example: see airport list